createdAt,value
2018-10-07T00:01:09.073Z,14.50
2018-10-07T00:03:37.465Z,14.40
2018-10-07T00:06:05.906Z,14.20
2018-10-07T00:08:34.357Z,14.00
2018-10-07T00:11:03.019Z,14.00
2018-10-07T00:13:31.729Z,13.80
2018-10-07T00:16:00.215Z,13.70
2018-10-07T00:18:36.108Z,13.70
2018-10-07T00:21:04.971Z,13.60
2018-10-07T00:23:33.473Z,13.70
2018-10-07T00:26:02.011Z,13.70
2018-10-07T00:28:30.299Z,13.70
2018-10-07T00:30:58.664Z,13.70
2018-10-07T00:33:28.645Z,13.70
2018-10-07T00:35:57.047Z,13.70
2018-10-07T00:38:25.387Z,13.70
2018-10-07T00:40:53.752Z,13.70
2018-10-07T00:43:24.899Z,13.70
2018-10-07T00:45:53.375Z,13.70
2018-10-07T00:48:22.368Z,13.70
2018-10-07T00:50:51.952Z,13.70
2018-10-07T00:53:20.345Z,13.70
2018-10-07T00:55:48.886Z,13.50
2018-10-07T00:58:17.324Z,13.40
2018-10-07T01:00:45.642Z,13.20
2018-10-07T01:03:13.869Z,13.10
2018-10-07T01:05:42.120Z,13.00
2018-10-07T01:08:10.394Z,12.90
2018-10-07T01:10:38.674Z,12.80
2018-10-07T01:13:07.127Z,12.70
2018-10-07T01:15:37.294Z,12.50
2018-10-07T01:18:05.547Z,12.50
2018-10-07T01:20:34.059Z,12.50
2018-10-07T01:23:02.272Z,12.30
2018-10-07T01:25:30.554Z,12.30
2018-10-07T01:27:58.867Z,12.10
2018-10-07T01:30:27.125Z,11.90
2018-10-07T01:32:55.904Z,11.80
2018-10-07T01:35:25.460Z,11.60
2018-10-07T01:37:53.710Z,11.50
2018-10-07T01:40:21.962Z,11.50
2018-10-07T01:42:50.167Z,11.40
2018-10-07T01:45:18.548Z,11.30
2018-10-07T01:47:46.830Z,11.30
2018-10-07T01:50:15.183Z,11.20
2018-10-07T01:52:43.517Z,11.20
2018-10-07T01:55:11.830Z,11.10
2018-10-07T01:57:40.102Z,10.90
2018-10-07T02:00:08.305Z,10.80
2018-10-07T02:02:36.789Z,10.70
2018-10-07T02:05:05.075Z,10.60
2018-10-07T02:07:33.337Z,10.40
2018-10-07T02:10:01.552Z,10.30
2018-10-07T02:12:29.755Z,10.10
2018-10-07T02:14:57.942Z,9.90
2018-10-07T02:17:26.178Z,9.70
2018-10-07T02:19:54.414Z,9.50
2018-10-07T02:22:22.622Z,9.40
2018-10-07T02:24:50.890Z,9.20
2018-10-07T02:27:19.139Z,9.10
2018-10-07T02:29:47.368Z,9.10
2018-10-07T02:32:15.648Z,9.10
2018-10-07T02:34:43.885Z,9.00
2018-10-07T02:37:12.206Z,9.00
2018-10-07T02:39:40.509Z,9.00
2018-10-07T02:42:08.756Z,9.00
2018-10-07T02:44:37.003Z,9.00
2018-10-07T02:47:05.525Z,9.00
2018-10-07T02:49:33.692Z,9.00
2018-10-07T02:52:01.998Z,9.10
2018-10-07T02:54:30.283Z,9.00
2018-10-07T02:56:58.457Z,9.10
2018-10-07T02:59:26.871Z,9.00
2018-10-07T03:01:55.242Z,9.00
2018-10-07T03:04:23.458Z,9.00
2018-10-07T03:06:51.870Z,9.00
2018-10-07T03:09:20.122Z,9.00
2018-10-07T03:11:48.361Z,9.00
2018-10-07T03:14:16.664Z,9.00
2018-10-07T03:16:45.696Z,9.00
2018-10-07T03:19:13.892Z,9.00
2018-10-07T03:21:42.214Z,9.00
2018-10-07T03:24:10.445Z,8.90
2018-10-07T03:26:38.786Z,8.90
2018-10-07T03:29:07.570Z,8.90
2018-10-07T03:31:35.878Z,9.00
2018-10-07T03:34:04.471Z,8.90
2018-10-07T03:36:32.703Z,8.90
2018-10-07T03:39:01.154Z,8.90
2018-10-07T03:41:29.463Z,8.90
2018-10-07T03:43:57.741Z,8.90
2018-10-07T03:46:25.974Z,8.90
2018-10-07T03:48:54.285Z,8.90
2018-10-07T03:51:22.569Z,8.90
2018-10-07T03:53:50.812Z,8.90
2018-10-07T03:56:19.138Z,8.90
2018-10-07T03:58:47.397Z,8.90
2018-10-07T04:01:15.648Z,8.90
2018-10-07T04:03:44.045Z,8.80
2018-10-07T04:06:12.400Z,8.80
2018-10-07T04:08:40.609Z,8.80
2018-10-07T04:11:08.950Z,8.80
2018-10-07T04:13:37.150Z,8.90
2018-10-07T04:16:05.411Z,8.90
2018-10-07T04:18:33.710Z,8.90
2018-10-07T04:21:01.891Z,8.90
2018-10-07T04:23:30.092Z,8.90
2018-10-07T04:25:58.402Z,8.80
2018-10-07T04:28:26.577Z,8.90
2018-10-07T04:30:54.785Z,8.90
2018-10-07T04:33:23.006Z,8.80
2018-10-07T04:35:51.206Z,8.80
2018-10-07T04:38:19.406Z,8.80
2018-10-07T04:40:47.558Z,8.80
2018-10-07T04:43:15.772Z,8.80
2018-10-07T04:48:21.391Z,8.80
2018-10-07T04:50:49.600Z,8.80
2018-10-07T04:53:18.120Z,8.70
2018-10-07T04:55:46.390Z,8.70
2018-10-07T04:58:14.712Z,8.70
2018-10-07T05:00:43.073Z,8.70
2018-10-07T05:03:11.282Z,8.70
2018-10-07T05:05:39.500Z,8.70
2018-10-07T05:08:08.241Z,8.70
2018-10-07T05:10:49.175Z,8.60
2018-10-07T05:13:21.375Z,8.60
2018-10-07T05:15:51.714Z,8.60
2018-10-07T05:18:19.976Z,8.40
2018-10-07T05:20:48.143Z,8.30
2018-10-07T05:23:16.312Z,8.30
2018-10-07T05:25:44.566Z,8.20
2018-10-07T05:28:12.774Z,8.20
2018-10-07T05:30:41.009Z,8.10
2018-10-07T05:33:09.333Z,8.10
2018-10-07T05:35:38.762Z,8.00
2018-10-07T05:38:06.927Z,8.00
2018-10-07T05:40:35.216Z,8.00
2018-10-07T05:43:03.676Z,8.00
2018-10-07T05:45:31.935Z,7.90
2018-10-07T05:48:00.231Z,7.90
2018-10-07T05:50:35.965Z,7.90
2018-10-07T05:53:04.245Z,7.90
2018-10-07T05:55:32.800Z,7.90
2018-10-07T05:58:04.369Z,7.80
2018-10-07T06:00:33.340Z,7.80
2018-10-07T06:03:09.338Z,7.70
2018-10-07T06:05:37.646Z,7.70
2018-10-07T06:08:06.851Z,7.70
2018-10-07T06:10:35.110Z,7.70
2018-10-07T06:13:03.334Z,7.80
2018-10-07T06:15:33.167Z,7.70
2018-10-07T06:18:01.522Z,7.80
2018-10-07T06:20:30.330Z,7.70
2018-10-07T06:22:58.881Z,7.70
2018-10-07T06:25:27.241Z,7.70
2018-10-07T06:27:56.355Z,7.70
2018-10-07T06:30:24.634Z,7.60
2018-10-07T06:32:53.449Z,7.60
2018-10-07T06:35:22.406Z,7.50
2018-10-07T06:37:50.615Z,7.50
2018-10-07T06:40:18.970Z,7.50
2018-10-07T06:42:47.185Z,7.50
2018-10-07T06:45:15.418Z,7.50
2018-10-07T06:47:43.679Z,7.50
2018-10-07T06:50:11.951Z,7.50
2018-10-07T06:52:40.183Z,7.60
2018-10-07T06:55:08.422Z,7.70
2018-10-07T06:57:36.622Z,7.70
2018-10-07T07:00:05.360Z,7.70
2018-10-07T07:02:33.621Z,7.70
2018-10-07T07:05:01.836Z,7.70
2018-10-07T07:07:30.028Z,7.80
2018-10-07T07:09:58.194Z,7.80
2018-10-07T07:12:26.634Z,7.90
2018-10-07T07:14:54.873Z,7.90
2018-10-07T07:17:23.174Z,7.80
2018-10-07T07:19:51.389Z,7.80
2018-10-07T07:22:19.529Z,7.80
2018-10-07T07:24:47.771Z,8.00
2018-10-07T07:27:16.108Z,8.10
2018-10-07T07:29:44.755Z,8.10
2018-10-07T07:32:12.950Z,8.20
2018-10-07T07:34:41.220Z,8.20
2018-10-07T07:37:09.437Z,8.20
2018-10-07T07:39:37.878Z,8.30
2018-10-07T07:42:06.131Z,8.40
2018-10-07T07:44:34.348Z,8.40
2018-10-07T07:47:02.585Z,8.50
2018-10-07T07:49:30.764Z,8.50
2018-10-07T07:51:58.978Z,8.60
2018-10-07T07:54:27.160Z,8.60
2018-10-07T07:56:55.462Z,8.70
2018-10-07T07:59:23.686Z,8.70
2018-10-07T08:01:51.961Z,8.80
2018-10-07T08:04:20.172Z,8.80
2018-10-07T08:06:48.471Z,8.80
2018-10-07T08:09:16.726Z,8.90
2018-10-07T08:11:44.998Z,9.00
2018-10-07T08:14:13.355Z,9.10
2018-10-07T08:16:41.610Z,9.20
2018-10-07T08:19:09.798Z,9.20
2018-10-07T08:21:37.964Z,9.30
2018-10-07T08:24:06.178Z,9.40
2018-10-07T08:26:34.418Z,9.40
2018-10-07T08:29:03.627Z,9.50
2018-10-07T08:31:32.303Z,9.60
2018-10-07T08:34:00.848Z,9.60
2018-10-07T08:36:29.195Z,9.60
2018-10-07T08:38:57.432Z,9.70
2018-10-07T08:41:25.691Z,9.70
2018-10-07T08:43:54.026Z,9.70
2018-10-07T08:46:22.219Z,9.80
2018-10-07T08:48:51.207Z,9.90
2018-10-07T08:51:19.501Z,10.00
2018-10-07T08:53:49.148Z,10.20
2018-10-07T08:56:17.592Z,10.20
2018-10-07T08:58:45.967Z,10.20
2018-10-07T09:01:14.788Z,10.30
2018-10-07T09:03:45.714Z,10.30
2018-10-07T09:06:14.061Z,10.30
2018-10-07T09:08:42.292Z,10.40
2018-10-07T09:11:10.702Z,10.50
2018-10-07T09:13:38.865Z,10.40
2018-10-07T09:16:07.095Z,10.40
2018-10-07T09:18:35.392Z,10.40
2018-10-07T09:21:03.903Z,10.40
2018-10-07T09:23:32.025Z,10.40
2018-10-07T09:26:00.343Z,10.50
2018-10-07T09:28:28.526Z,10.70
2018-10-07T09:30:56.726Z,10.70
2018-10-07T09:33:24.926Z,10.80
2018-10-07T09:35:53.170Z,10.80
2018-10-07T09:38:21.316Z,10.90
2018-10-07T09:40:49.496Z,11.00
2018-10-07T09:43:17.716Z,11.00
2018-10-07T09:45:45.964Z,11.00
2018-10-07T09:48:14.213Z,11.10
2018-10-07T09:50:42.379Z,11.10
2018-10-07T09:53:10.544Z,11.20
2018-10-07T09:55:38.741Z,11.20
2018-10-07T09:58:06.975Z,11.30
2018-10-07T10:00:41.020Z,11.30
2018-10-07T10:03:10.495Z,11.30
2018-10-07T10:05:38.807Z,11.30
2018-10-07T10:08:07.409Z,11.30
2018-10-07T10:10:35.610Z,11.40
2018-10-07T10:13:03.866Z,11.40
2018-10-07T10:15:32.147Z,11.60
2018-10-07T10:18:02.776Z,11.70
2018-10-07T10:20:43.713Z,11.70
2018-10-07T10:23:20.761Z,11.80
2018-10-07T10:28:04.341Z,11.90
2018-10-07T10:32:50.644Z,12.00
2018-10-07T10:37:29.865Z,11.90
2018-10-07T10:40:00.294Z,12.00
2018-10-07T10:43:37.691Z,12.00
2018-10-07T10:46:18.337Z,12.10
2018-10-07T10:50:57.273Z,12.10
2018-10-07T10:55:46.903Z,12.10
2018-10-07T10:58:18.915Z,12.10
2018-10-07T11:00:51.520Z,12.20
2018-10-07T11:04:25.987Z,12.30
2018-10-07T11:07:05.201Z,12.30
2018-10-07T11:09:39.077Z,12.30
2018-10-07T11:12:10.942Z,12.30
2018-10-07T11:14:50.590Z,12.40
2018-10-07T11:18:28.992Z,12.40
2018-10-07T11:22:14.045Z,12.40
2018-10-07T11:24:48.974Z,12.40
2018-10-07T11:27:25.898Z,12.50
2018-10-07T11:30:20.513Z,12.60
2018-10-07T11:32:59.962Z,12.60
2018-10-07T11:35:39.982Z,12.70
2018-10-07T11:38:16.455Z,12.80
2018-10-07T11:40:56.178Z,12.80
2018-10-07T11:43:32.623Z,12.80
2018-10-07T11:46:23.069Z,12.90
2018-10-07T11:49:07.662Z,12.90
2018-10-07T12:00:19.497Z,13.00
2018-10-07T12:02:49.572Z,13.00
2018-10-07T12:05:22.214Z,12.90
2018-10-07T12:07:51.841Z,13.00
2018-10-07T12:10:21.361Z,12.80
2018-10-07T12:12:51.157Z,12.90
2018-10-07T12:15:22.180Z,13.00
2018-10-07T12:17:50.677Z,13.00
2018-10-07T12:20:19.093Z,13.00
2018-10-07T12:22:47.504Z,13.00
2018-10-07T12:25:24.920Z,13.10
2018-10-07T12:27:53.240Z,13.10
2018-10-07T12:30:21.525Z,13.20
2018-10-07T12:32:50.043Z,13.20
2018-10-07T12:35:19.609Z,13.30
2018-10-07T12:37:48.780Z,13.30
2018-10-07T12:40:17.454Z,13.30
2018-10-07T12:42:45.818Z,13.30
2018-10-07T12:45:14.185Z,13.40
2018-10-07T12:47:42.671Z,13.40
2018-10-07T12:50:10.929Z,13.50
2018-10-07T12:52:39.968Z,13.50
2018-10-07T12:55:08.292Z,13.40
2018-10-07T12:57:36.582Z,13.40
2018-10-07T13:00:05.067Z,13.30
2018-10-07T13:02:33.413Z,13.50
2018-10-07T13:05:01.737Z,13.50
2018-10-07T13:07:30.409Z,13.60
2018-10-07T13:10:00.186Z,13.60
2018-10-07T13:12:28.466Z,13.60
2018-10-07T13:14:56.865Z,13.60
2018-10-07T13:17:26.571Z,13.60
2018-10-07T13:19:56.418Z,13.60
2018-10-07T13:22:24.748Z,13.60
2018-10-07T13:24:53.114Z,13.60
2018-10-07T13:27:21.599Z,13.60
2018-10-07T13:29:49.914Z,13.60
2018-10-07T13:32:18.283Z,13.60
2018-10-07T13:34:46.655Z,13.70
2018-10-07T13:37:15.260Z,13.70
2018-10-07T13:39:43.783Z,13.80
2018-10-07T13:42:12.307Z,13.80
2018-10-07T13:44:43.570Z,13.70
2018-10-07T13:47:12.037Z,13.80
2018-10-07T13:49:40.730Z,13.70
2018-10-07T13:52:09.200Z,13.70
2018-10-07T13:54:37.543Z,13.80
2018-10-07T13:57:05.884Z,13.80
2018-10-07T13:59:34.319Z,14.00
2018-10-07T14:02:02.637Z,14.00
2018-10-07T14:04:30.910Z,13.90
2018-10-07T14:06:59.306Z,13.90
2018-10-07T14:09:27.610Z,13.80
2018-10-07T14:11:55.991Z,13.80
2018-10-07T14:14:24.294Z,13.80
2018-10-07T14:16:52.579Z,13.60
2018-10-07T14:19:20.931Z,13.60
2018-10-07T14:21:49.210Z,13.50
2018-10-07T14:24:17.519Z,13.50
2018-10-07T14:26:45.911Z,13.50
2018-10-07T14:29:14.143Z,13.40
2018-10-07T14:31:42.390Z,13.40
2018-10-07T14:34:11.872Z,13.30
2018-10-07T14:36:40.267Z,13.30
2018-10-07T14:39:10.059Z,13.20
2018-10-07T14:41:38.387Z,13.20
2018-10-07T14:44:06.696Z,13.30
2018-10-07T14:46:35.045Z,13.30
2018-10-07T14:49:03.641Z,13.20
2018-10-07T14:51:32.292Z,13.20
2018-10-07T14:54:01.824Z,13.20
2018-10-07T14:56:30.197Z,13.20
2018-10-07T14:58:58.665Z,13.20
2018-10-07T15:01:27.184Z,13.10
2018-10-07T15:03:55.588Z,13.20
2018-10-07T15:06:25.009Z,13.20
2018-10-07T15:08:53.760Z,13.20
2018-10-07T15:11:22.253Z,13.10
2018-10-07T15:13:50.671Z,13.10
2018-10-07T15:16:19.130Z,13.10
2018-10-07T15:18:58.544Z,13.00
2018-10-07T15:21:34.101Z,13.10
2018-10-07T15:24:08.697Z,13.20
2018-10-07T15:26:42.056Z,13.20
2018-10-07T15:29:10.683Z,13.10
2018-10-07T15:31:42.917Z,13.10
2018-10-07T15:34:12.055Z,13.10
2018-10-07T15:36:40.635Z,13.10
2018-10-07T15:39:11.592Z,13.10
2018-10-07T15:41:44.127Z,13.00
2018-10-07T15:44:13.270Z,13.00
2018-10-07T15:46:42.331Z,12.90
2018-10-07T15:49:11.353Z,12.90
2018-10-07T15:51:42.205Z,12.80
2018-10-07T15:54:11.520Z,12.80
2018-10-07T15:56:42.336Z,12.70
2018-10-07T15:59:14.656Z,12.80
2018-10-07T16:01:50.407Z,12.70
2018-10-07T16:04:18.758Z,12.60
2018-10-07T16:06:59.314Z,12.50
2018-10-07T16:09:28.798Z,12.50
2018-10-07T16:11:57.537Z,12.30
2018-10-07T16:14:27.457Z,12.20
2018-10-07T16:16:59.131Z,12.20
2018-10-07T16:19:28.888Z,12.20
2018-10-07T16:21:57.472Z,12.10
2018-10-07T16:24:26.457Z,12.00
2018-10-07T16:26:55.381Z,11.90
2018-10-07T16:29:24.264Z,11.80
2018-10-07T16:31:53.355Z,11.70
2018-10-07T16:34:30.566Z,11.60
2018-10-07T16:36:59.730Z,11.50
2018-10-07T16:39:31.926Z,11.40
2018-10-07T16:42:01.013Z,11.30
2018-10-07T16:44:38.163Z,11.20
2018-10-07T16:47:23.203Z,11.10
2018-10-07T16:49:55.390Z,11.00
2018-10-07T16:52:23.621Z,11.00
2018-10-07T16:54:53.221Z,10.90
2018-10-07T16:57:22.260Z,10.80
2018-10-07T16:59:56.069Z,10.70
2018-10-07T17:02:25.424Z,10.70
2018-10-07T17:04:57.505Z,10.60
2018-10-07T17:07:29.173Z,10.50
2018-10-07T17:09:59.153Z,10.50
2018-10-07T17:12:27.701Z,10.40
2018-10-07T17:14:58.589Z,10.40
2018-10-07T17:17:29.122Z,10.30
2018-10-07T17:20:07.389Z,10.30
2018-10-07T17:22:35.796Z,10.20
2018-10-07T17:25:04.189Z,10.10
2018-10-07T17:27:45.532Z,10.10
2018-10-07T17:34:28.154Z,10.00
2018-10-07T17:36:58.141Z,10.00
2018-10-07T17:40:11.581Z,9.90
2018-10-07T17:42:52.746Z,9.90
2018-10-07T17:45:51.666Z,9.80
2018-10-07T17:48:28.092Z,9.80
2018-10-07T17:51:01.886Z,9.70
2018-10-07T17:56:30.919Z,9.60
2018-10-07T17:59:00.758Z,9.60
2018-10-07T18:01:29.902Z,9.60
2018-10-07T18:04:22.455Z,9.50
2018-10-07T18:14:14.161Z,9.50
2018-10-07T18:16:42.782Z,9.30
2018-10-07T18:19:11.883Z,9.30
2018-10-07T18:21:48.579Z,9.30
2018-10-07T18:24:21.342Z,9.30
2018-10-07T18:26:49.821Z,9.20
2018-10-07T18:29:18.316Z,9.20
2018-10-07T18:31:47.467Z,9.20
2018-10-07T18:34:51.360Z,9.10
2018-10-07T19:23:05.393Z,9.10
2018-10-07T19:25:36.788Z,8.30
2018-10-07T19:28:09.359Z,8.30
2018-10-07T19:30:46.306Z,8.30
2018-10-07T19:33:15.027Z,8.20
2018-10-07T19:35:44.508Z,8.20
2018-10-07T19:38:13.119Z,8.20
2018-10-07T19:40:42.361Z,8.30
2018-10-07T19:43:18.317Z,8.30
2018-10-07T19:45:46.997Z,8.20
2018-10-07T19:48:22.189Z,8.20
2018-10-07T19:50:51.125Z,8.20
2018-10-07T19:53:20.125Z,8.10
2018-10-07T19:55:48.722Z,8.10
2018-10-07T20:04:02.551Z,8.00
2018-10-07T20:07:35.162Z,8.00
2018-10-07T20:13:04.902Z,7.90
2018-10-07T20:18:42.480Z,7.90
2018-10-07T20:21:10.803Z,7.90
2018-10-07T20:23:39.573Z,7.80
2018-10-07T20:26:08.300Z,7.80
2018-10-07T20:28:36.717Z,7.80
2018-10-07T20:31:05.145Z,7.80
2018-10-07T20:33:33.361Z,7.80
2018-10-07T20:36:02.347Z,7.70
2018-10-07T20:38:30.811Z,7.70
2018-10-07T20:41:00.501Z,7.70
2018-10-07T20:43:29.247Z,7.70
2018-10-07T20:45:57.651Z,7.60
2018-10-07T20:48:25.992Z,7.60
2018-10-07T20:50:56.340Z,7.60
2018-10-07T20:53:29.250Z,7.60
2018-10-07T20:56:08.412Z,7.50
2018-10-07T21:07:40.020Z,7.50
2018-10-07T21:10:08.787Z,7.40
2018-10-07T21:12:37.544Z,7.40
2018-10-07T21:15:05.818Z,7.40
2018-10-07T21:17:34.573Z,7.30
2018-10-07T21:20:03.004Z,7.30
2018-10-07T21:22:31.320Z,7.30
2018-10-07T21:25:00.043Z,7.20
2018-10-07T21:27:29.109Z,7.20
2018-10-07T21:29:57.600Z,7.00
2018-10-07T21:32:26.858Z,7.00
2018-10-07T21:34:55.055Z,7.00
2018-10-07T21:37:23.249Z,6.90
2018-10-07T21:39:51.690Z,6.80
2018-10-07T21:42:19.964Z,6.90
2018-10-07T21:44:48.422Z,6.80
2018-10-07T21:47:16.581Z,6.80
2018-10-07T21:49:45.164Z,6.70
2018-10-07T21:52:13.350Z,6.60
2018-10-07T21:54:41.574Z,6.60
2018-10-07T21:57:09.824Z,6.60
2018-10-07T21:59:38.020Z,6.60
2018-10-07T22:02:06.240Z,6.60
2018-10-07T22:04:34.620Z,6.60
2018-10-07T22:07:02.861Z,6.70
2018-10-07T22:09:31.158Z,6.60
2018-10-07T22:11:59.394Z,6.60
2018-10-07T22:14:27.615Z,6.50
2018-10-07T22:16:55.885Z,6.50
2018-10-07T22:19:24.067Z,6.60
2018-10-07T22:21:52.261Z,6.50
2018-10-07T22:24:20.665Z,6.60
2018-10-07T22:26:48.881Z,6.50
2018-10-07T22:29:17.085Z,6.50
2018-10-07T22:31:45.466Z,6.50
2018-10-07T22:34:13.761Z,6.50
2018-10-07T22:36:42.021Z,6.50
2018-10-07T22:39:10.238Z,6.40
2018-10-07T22:41:38.490Z,6.50
2018-10-07T22:44:06.697Z,6.60
2018-10-07T22:46:35.001Z,6.60
2018-10-07T22:49:03.188Z,6.50
2018-10-07T22:51:31.458Z,6.50
2018-10-07T22:53:59.611Z,6.60
2018-10-07T22:56:27.832Z,6.60
2018-10-07T22:58:56.044Z,6.50
2018-10-07T23:01:24.204Z,6.40
2018-10-07T23:03:52.584Z,6.40
2018-10-07T23:06:20.765Z,6.30
2018-10-07T23:08:49.034Z,6.30
2018-10-07T23:11:17.209Z,6.30
2018-10-07T23:13:45.662Z,6.40
2018-10-07T23:16:13.908Z,6.40
2018-10-07T23:18:42.189Z,6.40
2018-10-07T23:21:10.325Z,6.40
2018-10-07T23:23:38.554Z,6.50
2018-10-07T23:26:06.781Z,6.50
2018-10-07T23:28:34.957Z,6.50
2018-10-07T23:31:03.111Z,6.50
2018-10-07T23:33:31.352Z,6.50
2018-10-07T23:35:59.520Z,6.40
2018-10-07T23:38:27.729Z,6.40
2018-10-07T23:40:56.844Z,6.40
2018-10-07T23:43:25.095Z,6.40
2018-10-07T23:45:53.450Z,6.30
2018-10-07T23:48:21.710Z,6.30
2018-10-07T23:50:49.898Z,6.20
2018-10-07T23:53:18.175Z,6.20
2018-10-07T23:55:46.393Z,6.10
2018-10-07T23:58:14.672Z,6.10
